sensor_id;sensor_type;location;lat;lon;timestamp;pressure;altitude;pressure_sealevel;temperature;humidity
9740;BME280;4909;42.680;26.324;2023-02-12T00:02:06;99525.28;;;2.37;43.58
9740;BME280;4909;42.680;26.324;2023-02-12T00:04:34;99527.91;;;2.40;44.20
9740;BME280;4909;42.680;26.324;2023-02-12T00:07:02;99524.47;;;2.76;43.24
9740;BME280;4909;42.680;26.324;2023-02-12T00:09:29;99521.84;;;2.88;42.96
9740;BME280;4909;42.680;26.324;2023-02-12T00:11:56;99520.97;;;3.12;42.62
9740;BME280;4909;42.680;26.324;2023-02-12T00:14:22;99526.22;;;2.98;42.71
9740;BME280;4909;42.680;26.324;2023-02-12T00:16:49;99526.22;;;3.18;42.81
9740;BME280;4909;42.680;26.324;2023-02-12T00:19:16;99514.84;;;2.97;42.67
9740;BME280;4909;42.680;26.324;2023-02-12T00:21:44;99516.63;;;3.00;42.32
9740;BME280;4909;42.680;26.324;2023-02-12T00:24:11;99511.34;;;3.08;41.92
9740;BME280;4909;42.680;26.324;2023-02-12T00:26:38;99512.22;;;2.93;42.80
9740;BME280;4909;42.680;26.324;2023-02-12T00:29:04;99505.25;;;2.89;42.83
9740;BME280;4909;42.680;26.324;2023-02-12T00:31:31;99494.75;;;2.60;43.25
9740;BME280;4909;42.680;26.324;2023-02-12T00:33:59;99503.50;;;2.60;43.43
9740;BME280;4909;42.680;26.324;2023-02-12T00:36:27;99473.78;;;2.65;44.20
9740;BME280;4909;42.680;26.324;2023-02-12T00:38:56;99491.22;;;2.47;43.64
9740;BME280;4909;42.680;26.324;2023-02-12T00:41:24;99488.59;;;2.47;44.16
9740;BME280;4909;42.680;26.324;2023-02-12T00:43:51;99486.00;;;2.59;44.03
9740;BME280;4909;42.680;26.324;2023-02-12T00:46:18;99495.63;;;2.77;43.64
9740;BME280;4909;42.680;26.324;2023-02-12T00:48:45;99489.53;;;2.95;43.77
9740;BME280;4909;42.680;26.324;2023-02-12T00:51:12;99486.88;;;3.24;42.51
9740;BME280;4909;42.680;26.324;2023-02-12T00:53:39;99490.38;;;2.95;42.48
9740;BME280;4909;42.680;26.324;2023-02-12T00:56:07;99500.81;;;2.33;44.69
9740;BME280;4909;42.680;26.324;2023-02-12T00:58:34;99506.78;;;1.85;46.23
9740;BME280;4909;42.680;26.324;2023-02-12T01:01:01;99450.88;;;1.68;46.99
9740;BME280;4909;42.680;26.324;2023-02-12T01:03:28;99499.03;;;2.20;46.62
9740;BME280;4909;42.680;26.324;2023-02-12T01:05:55;99488.59;;;2.37;45.85
9740;BME280;4909;42.680;26.324;2023-02-12T01:08:22;99490.25;;;1.98;46.98
9740;BME280;4909;42.680;26.324;2023-02-12T01:10:54;99471.94;;;2.03;46.48
9740;BME280;4909;42.680;26.324;2023-02-12T01:13:23;99487.75;;;2.51;46.19
9740;BME280;4909;42.680;26.324;2023-02-12T01:16:00;99484.28;;;2.65;46.73
9740;BME280;4909;42.680;26.324;2023-02-12T01:18:27;99492.13;;;2.84;45.11
9740;BME280;4909;42.680;26.324;2023-02-12T01:20:54;99477.25;;;2.97;44.73
9740;BME280;4909;42.680;26.324;2023-02-12T01:23:20;99483.41;;;2.90;45.31
9740;BME280;4909;42.680;26.324;2023-02-12T01:25:47;99478.13;;;2.96;44.96
9740;BME280;4909;42.680;26.324;2023-02-12T01:28:14;99470.25;;;2.96;44.78
9740;BME280;4909;42.680;26.324;2023-02-12T01:30:42;99458.91;;;2.95;44.34
9740;BME280;4909;42.680;26.324;2023-02-12T01:33:09;99464.13;;;3.29;44.08
9740;BME280;4909;42.680;26.324;2023-02-12T01:35:36;99455.34;;;3.25;43.77
9740;BME280;4909;42.680;26.324;2023-02-12T01:38:03;99463.22;;;3.31;44.29
9740;BME280;4909;42.680;26.324;2023-02-12T01:40:29;99465.81;;;3.53;44.11
9740;BME280;4909;42.680;26.324;2023-02-12T01:42:59;99425.56;;;3.47;43.72
9740;BME280;4909;42.680;26.324;2023-02-12T01:45:46;99465.81;;;3.45;43.78
9740;BME280;4909;42.680;26.324;2023-02-12T01:48:16;99416.13;;;2.75;45.42
9740;BME280;4909;42.680;26.324;2023-02-12T01:50:45;99448.47;;;2.60;46.54
9740;BME280;4909;42.680;26.324;2023-02-12T01:53:12;99450.16;;;2.39;47.39
9740;BME280;4909;42.680;26.324;2023-02-12T01:55:46;99451.06;;;2.36;48.19
9740;BME280;4909;42.680;26.324;2023-02-12T01:58:14;99449.19;;;1.85;49.51
9740;BME280;4909;42.680;26.324;2023-02-12T02:00:41;99455.28;;;1.83;49.72
9740;BME280;4909;42.680;26.324;2023-02-12T02:03:10;99444.88;;;1.93;49.57
9740;BME280;4909;42.680;26.324;2023-02-12T02:05:42;99444.91;;;2.07;49.31
9740;BME280;4909;42.680;26.324;2023-02-12T02:08:09;99452.72;;;2.05;48.97
9740;BME280;4909;42.680;26.324;2023-02-12T02:10:36;99446.56;;;1.81;50.84
9740;BME280;4909;42.680;26.324;2023-02-12T02:13:04;99457.03;;;1.85;50.16
9740;BME280;4909;42.680;26.324;2023-02-12T02:15:50;99451.91;;;2.17;49.71
9740;BME280;4909;42.680;26.324;2023-02-12T02:18:23;99446.69;;;2.35;49.66
9740;BME280;4909;42.680;26.324;2023-02-12T02:21:13;99448.47;;;2.60;48.59
9740;BME280;4909;42.680;26.324;2023-02-12T02:27:14;99438.84;;;2.50;48.93
9740;BME280;4909;42.680;26.324;2023-02-12T02:32:42;99435.34;;;2.41;47.87
9740;BME280;4909;42.680;26.324;2023-02-12T02:35:16;99438.81;;;2.29;48.25
9740;BME280;4909;42.680;26.324;2023-02-12T02:37:48;99448.31;;;1.89;48.92
9740;BME280;4909;42.680;26.324;2023-02-12T02:40:18;99450.94;;;1.86;49.35
9740;BME280;4909;42.680;26.324;2023-02-12T02:42:52;99443.97;;;1.91;49.79
9740;BME280;4909;42.680;26.324;2023-02-12T02:45:25;99453.59;;;2.01;49.31
9740;BME280;4909;42.680;26.324;2023-02-12T02:47:59;99416.91;;;1.79;49.70
9740;BME280;4909;42.680;26.324;2023-02-12T02:50:29;99446.56;;;1.82;49.81
9740;BME280;4909;42.680;26.324;2023-02-12T02:53:01;99449.84;;;1.34;51.67
9740;BME280;4909;42.680;26.324;2023-02-12T02:55:34;99448.19;;;1.48;51.85
9740;BME280;4909;42.680;26.324;2023-02-12T02:58:06;99454.28;;;1.52;51.42
9740;BME280;4909;42.680;26.324;2023-02-12T03:00:37;99449.97;;;1.63;51.25
9740;BME280;4909;42.680;26.324;2023-02-12T03:03:10;99450.09;;;1.96;50.61
9740;BME280;4909;42.680;26.324;2023-02-12T03:05:41;99453.63;;;2.06;49.88
9740;BME280;4909;42.680;26.324;2023-02-12T03:08:11;99456.28;;;2.21;49.95
9740;BME280;4909;42.680;26.324;2023-02-12T03:10:42;99453.63;;;2.24;49.49
9740;BME280;4909;42.680;26.324;2023-02-12T03:13:15;99453.59;;;1.92;50.14
9740;BME280;4909;42.680;26.324;2023-02-12T03:15:48;99449.28;;;2.12;49.96
9740;BME280;4909;42.680;26.324;2023-02-12T03:18:22;99441.34;;;1.84;50.20
9740;BME280;4909;42.680;26.324;2023-02-12T03:20:53;99431.63;;;1.60;50.85
9740;BME280;4909;42.680;26.324;2023-02-12T03:23:24;99415.75;;;1.14;51.92
9740;BME280;4909;42.680;26.324;2023-02-12T03:25:55;99443.84;;;1.53;51.65
9740;BME280;4909;42.680;26.324;2023-02-12T03:28:26;99435.19;;;1.71;51.16
9740;BME280;4909;42.680;26.324;2023-02-12T03:30:58;99439.53;;;1.67;50.43
9740;BME280;4909;42.680;26.324;2023-02-12T03:33:36;99449.22;;;2.03;49.91
9740;BME280;4909;42.680;26.324;2023-02-12T03:36:08;99438.84;;;2.40;49.04
9740;BME280;4909;42.680;26.324;2023-02-12T03:38:43;99444.06;;;2.31;48.45
9740;BME280;4909;42.680;26.324;2023-02-12T03:41:18;99424.84;;;2.23;48.71
9740;BME280;4909;42.680;26.324;2023-02-12T03:43:48;99436.22;;;2.40;48.33
9740;BME280;4909;42.680;26.324;2023-02-12T03:46:19;99444.97;;;2.66;48.40
9740;BME280;4909;42.680;26.324;2023-02-12T03:48:57;99448.44;;;2.57;48.35
9740;BME280;4909;42.680;26.324;2023-02-12T03:51:29;99444.09;;;2.55;48.12
9740;BME280;4909;42.680;26.324;2023-02-12T03:53:57;99442.31;;;2.22;48.06
9740;BME280;4909;42.680;26.324;2023-02-12T03:56:28;99443.16;;;2.16;48.49
9740;BME280;4909;42.680;26.324;2023-02-12T03:58:57;99430.97;;;2.52;47.32
9740;BME280;4909;42.680;26.324;2023-02-12T04:01:24;99444.06;;;2.32;47.28
9740;BME280;4909;42.680;26.324;2023-02-12T04:03:53;99446.69;;;2.46;47.90
9740;BME280;4909;42.680;26.324;2023-02-12T04:06:23;99441.44;;;2.44;48.22
9740;BME280;4909;42.680;26.324;2023-02-12T04:08:50;99445.81;;;2.74;47.28
9740;BME280;4909;42.680;26.324;2023-02-12T04:11:25;99443.16;;;2.95;47.22
9740;BME280;4909;42.680;26.324;2023-02-12T04:14:06;99441.41;;;3.17;46.41
9740;BME280;4909;42.680;26.324;2023-02-12T04:16:42;99437.91;;;3.12;46.52
9740;BME280;4909;42.680;26.324;2023-02-12T04:19:15;99434.41;;;3.01;46.88
9740;BME280;4909;42.680;26.324;2023-02-12T04:21:54;99448.44;;;2.88;47.07
9740;BME280;4909;42.680;26.324;2023-02-12T04:24:30;99440.56;;;2.42;47.73
9740;BME280;4909;42.680;26.324;2023-02-12T04:27:09;99426.59;;;2.34;48.11
9740;BME280;4909;42.680;26.324;2023-02-12T04:29:42;99443.09;;;1.88;49.81
9740;BME280;4909;42.680;26.324;2023-02-12T04:32:14;99444.88;;;2.01;49.59
9740;BME280;4909;42.680;26.324;2023-02-12T04:34:48;99448.41;;;2.24;49.01
9740;BME280;4909;42.680;26.324;2023-02-12T04:37:19;99451.03;;;2.23;48.90
9740;BME280;4909;42.680;26.324;2023-02-12T04:39:48;99453.66;;;2.29;48.74
9740;BME280;4909;42.680;26.324;2023-02-12T04:42:16;99448.44;;;2.39;48.70
9740;BME280;4909;42.680;26.324;2023-02-12T04:44:43;99428.34;;;2.26;48.35
9740;BME280;4909;42.680;26.324;2023-02-12T04:47:10;99455.41;;;2.30;48.40
9740;BME280;4909;42.680;26.324;2023-02-12T04:49:37;99416.06;;;1.93;48.81
9740;BME280;4909;42.680;26.324;2023-02-12T04:52:06;99437.06;;;2.22;48.01
9740;BME280;4909;42.680;26.324;2023-02-12T04:54:33;99472.00;;;2.38;47.80
9740;BME280;4909;42.680;26.324;2023-02-12T04:57:00;99421.28;;;1.90;48.37
9740;BME280;4909;42.680;26.324;2023-02-12T04:59:26;99478.13;;;2.38;47.74
9740;BME280;4909;42.680;26.324;2023-02-12T05:01:53;99483.31;;;2.18;48.53
9740;BME280;4909;42.680;26.324;2023-02-12T05:04:20;99483.34;;;2.34;48.90
9740;BME280;4909;42.680;26.324;2023-02-12T05:06:47;99477.22;;;2.26;48.29
9740;BME280;4909;42.680;26.324;2023-02-12T05:09:17;99478.09;;;2.34;48.81
9740;BME280;4909;42.680;26.324;2023-02-12T05:11:44;99477.25;;;2.39;48.51
9740;BME280;4909;42.680;26.324;2023-02-12T05:14:11;99482.44;;;2.24;48.42
9740;BME280;4909;42.680;26.324;2023-02-12T05:16:38;99492.06;;;2.37;48.30
9740;BME280;4909;42.680;26.324;2023-02-12T05:19:05;99505.19;;;2.31;48.25
9740;BME280;4909;42.680;26.324;2023-02-12T05:21:33;99512.09;;;2.02;48.55
9740;BME280;4909;42.680;26.324;2023-02-12T05:24:00;99507.66;;;1.83;49.49
9740;BME280;4909;42.680;26.324;2023-02-12T05:26:28;99508.59;;;2.01;49.50
9740;BME280;4909;42.680;26.324;2023-02-12T05:28:55;99514.63;;;1.85;49.53
9740;BME280;4909;42.680;26.324;2023-02-12T05:31:22;99509.47;;;2.06;49.23
9740;BME280;4909;42.680;26.324;2023-02-12T05:33:49;99519.97;;;2.12;49.14
9740;BME280;4909;42.680;26.324;2023-02-12T05:36:17;99528.66;;;2.08;49.13
9740;BME280;4909;42.680;26.324;2023-02-12T05:38:44;99535.59;;;1.88;48.96
9740;BME280;4909;42.680;26.324;2023-02-12T05:41:13;99519.72;;;1.58;49.88
9740;BME280;4909;42.680;26.324;2023-02-12T05:43:42;99533.81;;;1.81;49.58
9740;BME280;4909;42.680;26.324;2023-02-12T05:46:09;99531.13;;;1.70;49.52
9740;BME280;4909;42.680;26.324;2023-02-12T05:48:37;99529.41;;;1.74;49.93
9740;BME280;4909;42.680;26.324;2023-02-12T05:51:06;99536.22;;;1.45;51.10
9740;BME280;4909;42.680;26.324;2023-02-12T05:53:33;99540.41;;;1.21;51.30
9740;BME280;4909;42.680;26.324;2023-02-12T05:56:11;99552.63;;;1.21;51.41
9740;BME280;4909;42.680;26.324;2023-02-12T05:58:40;99549.22;;;1.34;51.21
9740;BME280;4909;42.680;26.324;2023-02-12T06:01:13;99536.38;;;1.69;51.09
9740;BME280;4909;42.680;26.324;2023-02-12T06:03:40;99554.78;;;1.90;50.05
9740;BME280;4909;42.680;26.324;2023-02-12T06:06:08;99540.75;;;1.74;50.24
9740;BME280;4909;42.680;26.324;2023-02-12T06:08:35;99540.84;;;1.99;50.71
9740;BME280;4909;42.680;26.324;2023-02-12T06:11:02;99543.47;;;1.93;51.03
9740;BME280;4909;42.680;26.324;2023-02-12T06:13:30;99542.66;;;2.10;53.23
9740;BME280;4909;42.680;26.324;2023-02-12T06:15:58;99546.28;;;2.55;53.21
9740;BME280;4909;42.680;26.324;2023-02-12T06:18:26;99504.38;;;2.94;51.68
9740;BME280;4909;42.680;26.324;2023-02-12T06:20:53;99558.53;;;3.44;50.33
9740;BME280;4909;42.680;26.324;2023-02-12T06:23:20;99541.91;;;3.57;49.93
9740;BME280;4909;42.680;26.324;2023-02-12T06:25:47;99545.31;;;3.88;49.59
9740;BME280;4909;42.680;26.324;2023-02-12T06:28:14;99546.19;;;3.91;49.06
9740;BME280;4909;42.680;26.324;2023-02-12T06:30:41;99542.63;;;4.05;48.51
9740;BME280;4909;42.680;26.324;2023-02-12T06:33:08;99558.34;;;4.14;48.31
9740;BME280;4909;42.680;26.324;2023-02-12T06:35:37;99558.31;;;4.26;48.50
9740;BME280;4909;42.680;26.324;2023-02-12T06:38:04;99553.88;;;4.34;49.04
9740;BME280;4909;42.680;26.324;2023-02-12T06:40:31;99549.44;;;4.45;47.87
9740;BME280;4909;42.680;26.324;2023-02-12T06:42:58;99544.16;;;4.50;47.39
9740;BME280;4909;42.680;26.324;2023-02-12T06:45:25;99520.66;;;4.22;47.97
9740;BME280;4909;42.680;26.324;2023-02-12T06:47:52;99564.25;;;4.61;47.94
9740;BME280;4909;42.680;26.324;2023-02-12T06:50:19;99572.00;;;4.84;47.31
9740;BME280;4909;42.680;26.324;2023-02-12T06:52:47;99574.44;;;5.11;46.17
9740;BME280;4909;42.680;26.324;2023-02-12T06:55:14;99566.47;;;5.19;45.62
9740;BME280;4909;42.680;26.324;2023-02-12T06:57:41;99578.03;;;4.95;46.35
9740;BME280;4909;42.680;26.324;2023-02-12T07:00:09;99571.91;;;4.98;46.40
9740;BME280;4909;42.680;26.324;2023-02-12T07:02:35;99573.66;;;4.96;46.40
9740;BME280;4909;42.680;26.324;2023-02-12T07:05:03;99553.53;;;4.90;46.30
9740;BME280;4909;42.680;26.324;2023-02-12T07:07:29;99574.44;;;5.10;46.55
9740;BME280;4909;42.680;26.324;2023-02-12T07:09:57;99572.56;;;5.25;46.50
9740;BME280;4909;42.680;26.324;2023-02-12T07:12:24;99571.75;;;5.17;46.36
9740;BME280;4909;42.680;26.324;2023-02-12T07:14:51;99576.16;;;5.14;46.79
9740;BME280;4909;42.680;26.324;2023-02-12T07:17:18;99563.69;;;5.37;45.92
9740;BME280;4909;42.680;26.324;2023-02-12T07:19:44;99574.06;;;5.52;45.53
9740;BME280;4909;42.680;26.324;2023-02-12T07:22:11;99562.50;;;5.67;44.84
9740;BME280;4909;42.680;26.324;2023-02-12T07:24:38;99567.78;;;5.67;44.41
9740;BME280;4909;42.680;26.324;2023-02-12T07:27:06;99577.25;;;5.88;44.39
9740;BME280;4909;42.680;26.324;2023-02-12T07:29:33;99573.59;;;6.01;44.00
9740;BME280;4909;42.680;26.324;2023-02-12T07:32:00;99547.28;;;5.99;43.36
9740;BME280;4909;42.680;26.324;2023-02-12T07:34:26;99574.56;;;5.91;43.74
9740;BME280;4909;42.680;26.324;2023-02-12T07:36:53;99571.69;;;6.14;43.75
9740;BME280;4909;42.680;26.324;2023-02-12T07:39:20;99578.13;;;5.90;43.82
9740;BME280;4909;42.680;26.324;2023-02-12T07:41:47;99577.38;;;6.50;42.59
9740;BME280;4909;42.680;26.324;2023-02-12T07:44:15;99579.75;;;6.72;41.54
9740;BME280;4909;42.680;26.324;2023-02-12T07:46:44;99575.03;;;7.46;39.99
9740;BME280;4909;42.680;26.324;2023-02-12T07:49:12;99550.47;;;7.90;38.64
9740;BME280;4909;42.680;26.324;2023-02-12T07:51:39;99578.19;;;8.13;38.31
9740;BME280;4909;42.680;26.324;2023-02-12T07:54:06;99562.41;;;8.10;38.64
9740;BME280;4909;42.680;26.324;2023-02-12T07:56:34;99565.09;;;7.61;39.10
9740;BME280;4909;42.680;26.324;2023-02-12T07:59:05;99584.16;;;7.26;40.38
9740;BME280;4909;42.680;26.324;2023-02-12T08:01:35;99567.50;;;7.24;40.49
9740;BME280;4909;42.680;26.324;2023-02-12T08:04:04;99568.44;;;8.17;38.69
9740;BME280;4909;42.680;26.324;2023-02-12T08:06:33;99556.09;;;8.99;36.70
9740;BME280;4909;42.680;26.324;2023-02-12T08:09:02;99568.03;;;10.18;34.87
9740;BME280;4909;42.680;26.324;2023-02-12T08:11:30;99563.19;;;10.32;33.88
9740;BME280;4909;42.680;26.324;2023-02-12T08:13:58;99581.75;;;11.20;32.40
9740;BME280;4909;42.680;26.324;2023-02-12T08:16:27;99570.66;;;12.13;30.99
9740;BME280;4909;42.680;26.324;2023-02-12T08:18:56;99573.56;;;11.81;30.98
9740;BME280;4909;42.680;26.324;2023-02-12T08:21:25;99567.94;;;11.09;32.02
9740;BME280;4909;42.680;26.324;2023-02-12T08:23:52;99558.59;;;10.39;33.00
9740;BME280;4909;42.680;26.324;2023-02-12T08:26:21;99572.38;;;10.52;32.97
9740;BME280;4909;42.680;26.324;2023-02-12T08:28:49;99587.34;;;9.91;33.85
9740;BME280;4909;42.680;26.324;2023-02-12T08:31:18;99595.84;;;9.70;34.60
9740;BME280;4909;42.680;26.324;2023-02-12T08:33:47;99584.31;;;9.37;35.44
9740;BME280;4909;42.680;26.324;2023-02-12T08:36:17;99608.25;;;9.32;35.26
9740;BME280;4909;42.680;26.324;2023-02-12T08:38:45;99597.66;;;8.95;36.13
9740;BME280;4909;42.680;26.324;2023-02-12T08:41:14;99608.47;;;8.45;36.91
9740;BME280;4909;42.680;26.324;2023-02-12T08:43:42;99613.56;;;8.08;38.33
9740;BME280;4909;42.680;26.324;2023-02-12T08:46:11;99605.41;;;8.18;38.14
9740;BME280;4909;42.680;26.324;2023-02-12T08:48:39;99604.00;;;8.01;38.52
9740;BME280;4909;42.680;26.324;2023-02-12T08:51:08;99596.25;;;7.90;38.44
9740;BME280;4909;42.680;26.324;2023-02-12T08:53:37;99606.47;;;7.61;39.35
9740;BME280;4909;42.680;26.324;2023-02-12T08:56:05;99599.75;;;7.94;38.80
9740;BME280;4909;42.680;26.324;2023-02-12T08:58:33;99574.38;;;7.83;38.27
9740;BME280;4909;42.680;26.324;2023-02-12T09:01:00;99601.88;;;8.19;37.93
9740;BME280;4909;42.680;26.324;2023-02-12T09:03:27;99604.47;;;8.22;37.23
9740;BME280;4909;42.680;26.324;2023-02-12T09:05:54;99593.75;;;9.11;35.96
9740;BME280;4909;42.680;26.324;2023-02-12T09:08:21;99583.53;;;10.33;33.72
9740;BME280;4909;42.680;26.324;2023-02-12T09:10:49;99596.97;;;11.96;31.13
9740;BME280;4909;42.680;26.324;2023-02-12T09:13:16;99593.44;;;12.20;29.18
9740;BME280;4909;42.680;26.324;2023-02-12T09:15:44;99593.47;;;11.67;29.90
9740;BME280;4909;42.680;26.324;2023-02-12T09:18:12;99598.28;;;12.09;29.87
9740;BME280;4909;42.680;26.324;2023-02-12T09:20:40;99595.72;;;12.06;29.55
9740;BME280;4909;42.680;26.324;2023-02-12T09:23:09;99570.25;;;11.20;30.20
9740;BME280;4909;42.680;26.324;2023-02-12T09:25:39;99595.88;;;11.22;30.88
9740;BME280;4909;42.680;26.324;2023-02-12T09:28:08;99587.31;;;11.13;31.02
9740;BME280;4909;42.680;26.324;2023-02-12T09:30:35;99611.13;;;10.88;31.31
9740;BME280;4909;42.680;26.324;2023-02-12T09:33:02;99591.47;;;10.94;31.10
9740;BME280;4909;42.680;26.324;2023-02-12T09:35:29;99617.81;;;11.00;30.74
9740;BME280;4909;42.680;26.324;2023-02-12T09:37:56;99614.78;;;10.22;31.42
9740;BME280;4909;42.680;26.324;2023-02-12T09:40:29;99613.31;;;10.11;32.58
9740;BME280;4909;42.680;26.324;2023-02-12T09:43:08;99610.09;;;10.32;31.93
9740;BME280;4909;42.680;26.324;2023-02-12T09:45:40;99630.97;;;9.42;34.46
9740;BME280;4909;42.680;26.324;2023-02-12T09:48:28;99623.38;;;8.90;36.42
9740;BME280;4909;42.680;26.324;2023-02-12T09:50:59;99629.78;;;9.54;35.40
9740;BME280;4909;42.680;26.324;2023-02-12T09:53:30;99604.63;;;9.72;34.39
9740;BME280;4909;42.680;26.324;2023-02-12T09:55:58;99621.72;;;10.28;33.31
9740;BME280;4909;42.680;26.324;2023-02-12T09:58:33;99610.84;;;10.37;33.74
9740;BME280;4909;42.680;26.324;2023-02-12T10:01:09;99615.34;;;10.35;33.95
9740;BME280;4909;42.680;26.324;2023-02-12T10:03:37;99617.97;;;10.66;32.76
9740;BME280;4909;42.680;26.324;2023-02-12T10:06:06;99612.31;;;10.78;33.03
9740;BME280;4909;42.680;26.324;2023-02-12T10:08:45;99621.03;;;10.52;32.53
9740;BME280;4909;42.680;26.324;2023-02-12T10:11:27;99631.16;;;10.69;31.83
9740;BME280;4909;42.680;26.324;2023-02-12T10:14:08;99629.84;;;10.53;32.05
9740;BME280;4909;42.680;26.324;2023-02-12T10:16:47;99637.06;;;10.49;32.17
9740;BME280;4909;42.680;26.324;2023-02-12T10:19:30;99639.84;;;10.11;32.94
9740;BME280;4909;42.680;26.324;2023-02-12T10:22:07;99642.63;;;9.72;31.57
9740;BME280;4909;42.680;26.324;2023-02-12T10:24:54;99649.91;;;9.26;31.41
9740;BME280;4909;42.680;26.324;2023-02-12T10:27:33;99656.63;;;9.02;32.43
9740;BME280;4909;42.680;26.324;2023-02-12T10:30:13;99654.06;;;9.37;32.45
9740;BME280;4909;42.680;26.324;2023-02-12T10:32:44;99665.72;;;9.67;33.34
9740;BME280;4909;42.680;26.324;2023-02-12T10:35:13;99655.75;;;9.77;33.06
9740;BME280;4909;42.680;26.324;2023-02-12T10:37:42;99661.88;;;9.79;31.85
9740;BME280;4909;42.680;26.324;2023-02-12T10:40:17;99666.13;;;9.86;31.77
9740;BME280;4909;42.680;26.324;2023-02-12T10:42:47;99661.00;;;10.12;31.23
9740;BME280;4909;42.680;26.324;2023-02-12T10:45:18;99676.66;;;10.24;30.98
9740;BME280;4909;42.680;26.324;2023-02-12T10:47:49;99676.47;;;9.96;31.78
9740;BME280;4909;42.680;26.324;2023-02-12T10:50:23;99682.44;;;9.69;32.49
9740;BME280;4909;42.680;26.324;2023-02-12T10:52:56;99677.59;;;9.51;32.56
9740;BME280;4909;42.680;26.324;2023-02-12T10:55:30;99674.81;;;9.19;33.22
9740;BME280;4909;42.680;26.324;2023-02-12T10:57:57;99676.09;;;9.39;33.29
9740;BME280;4909;42.680;26.324;2023-02-12T11:00:29;99684.59;;;9.15;33.79
9740;BME280;4909;42.680;26.324;2023-02-12T11:03:15;99687.06;;;9.23;33.68
9740;BME280;4909;42.680;26.324;2023-02-12T11:05:44;99684.13;;;9.35;34.26
9740;BME280;4909;42.680;26.324;2023-02-12T11:08:29;99693.22;;;9.63;33.67
9740;BME280;4909;42.680;26.324;2023-02-12T11:11:03;99691.84;;;9.45;33.96
9740;BME280;4909;42.680;26.324;2023-02-12T11:13:30;99700.13;;;9.69;33.25
9740;BME280;4909;42.680;26.324;2023-02-12T11:15:59;99706.56;;;9.94;32.76
9740;BME280;4909;42.680;26.324;2023-02-12T11:18:27;99704.91;;;9.90;32.13
9740;BME280;4909;42.680;26.324;2023-02-12T11:20:59;99704.63;;;9.65;32.58
9740;BME280;4909;42.680;26.324;2023-02-12T11:23:27;99677.84;;;9.40;33.42
9740;BME280;4909;42.680;26.324;2023-02-12T11:25:57;99701.63;;;9.43;33.82
9740;BME280;4909;42.680;26.324;2023-02-12T11:28:25;99697.09;;;9.48;33.35
9740;BME280;4909;42.680;26.324;2023-02-12T11:30:55;99703.22;;;9.50;33.50
9740;BME280;4909;42.680;26.324;2023-02-12T11:33:27;99699.88;;;9.42;33.21
9740;BME280;4909;42.680;26.324;2023-02-12T11:35:56;99695.28;;;9.49;33.45
9740;BME280;4909;42.680;26.324;2023-02-12T11:38:26;99694.94;;;9.26;34.10
9740;BME280;4909;42.680;26.324;2023-02-12T11:40:56;99694.91;;;9.29;34.25
9740;BME280;4909;42.680;26.324;2023-02-12T11:43:25;99696.97;;;9.14;34.47
9740;BME280;4909;42.680;26.324;2023-02-12T11:45:54;99691.53;;;9.21;34.64
9740;BME280;4909;42.680;26.324;2023-02-12T11:48:26;99705.25;;;8.99;34.75
9740;BME280;4909;42.680;26.324;2023-02-12T11:50:56;99703.78;;;9.26;34.72
9740;BME280;4909;42.680;26.324;2023-02-12T11:53:26;99667.06;;;9.48;33.88
9740;BME280;4909;42.680;26.324;2023-02-12T11:55:57;99696.78;;;9.60;34.43
9740;BME280;4909;42.680;26.324;2023-02-12T11:58:27;99696.63;;;9.30;34.44
9740;BME280;4909;42.680;26.324;2023-02-12T12:01:01;99692.75;;;9.44;35.06
9740;BME280;4909;42.680;26.324;2023-02-12T12:03:36;99695.22;;;9.53;35.11
9740;BME280;4909;42.680;26.324;2023-02-12T12:06:09;99699.91;;;9.41;35.25
9740;BME280;4909;42.680;26.324;2023-02-12T12:08:42;99695.41;;;9.44;35.74
9740;BME280;4909;42.680;26.324;2023-02-12T12:11:14;99693.13;;;9.66;36.03
9740;BME280;4909;42.680;26.324;2023-02-12T12:13:47;99689.13;;;9.85;36.08
9740;BME280;4909;42.680;26.324;2023-02-12T12:16:21;99701.38;;;9.91;35.64
9740;BME280;4909;42.680;26.324;2023-02-12T12:19:14;99694.72;;;9.73;35.97
9740;BME280;4909;42.680;26.324;2023-02-12T12:22:21;99703.28;;;9.47;36.92
9740;BME280;4909;42.680;26.324;2023-02-12T12:24:54;99705.09;;;9.45;37.15
9740;BME280;4909;42.680;26.324;2023-02-12T12:27:29;99684.53;;;9.18;37.63
9740;BME280;4909;42.680;26.324;2023-02-12T12:30:21;99713.78;;;9.12;38.60
9740;BME280;4909;42.680;26.324;2023-02-12T12:32:51;99715.03;;;9.36;38.60
9740;BME280;4909;42.680;26.324;2023-02-12T12:35:26;99724.41;;;9.10;38.45
9740;BME280;4909;42.680;26.324;2023-02-12T12:38:00;99729.59;;;9.16;38.92
9740;BME280;4909;42.680;26.324;2023-02-12T12:40:54;99724.16;;;9.24;38.57
9740;BME280;4909;42.680;26.324;2023-02-12T12:43:34;99734.88;;;9.18;38.85
9740;BME280;4909;42.680;26.324;2023-02-12T12:46:19;99741.59;;;8.91;39.69
9740;BME280;4909;42.680;26.324;2023-02-12T12:49:01;99739.59;;;9.04;40.12
9740;BME280;4909;42.680;26.324;2023-02-12T12:51:47;99745.59;;;9.10;40.32
9740;BME280;4909;42.680;26.324;2023-02-12T12:54:30;99742.91;;;9.13;40.11
9740;BME280;4909;42.680;26.324;2023-02-12T12:57:04;99749.22;;;9.06;40.27
9740;BME280;4909;42.680;26.324;2023-02-12T13:00:07;99748.16;;;9.15;40.07
9740;BME280;4909;42.680;26.324;2023-02-12T13:03:04;99754.41;;;9.11;40.27
9740;BME280;4909;42.680;26.324;2023-02-12T13:09:00;99761.84;;;8.95;40.88
9740;BME280;4909;42.680;26.324;2023-02-12T13:11:38;99762.69;;;8.96;40.81
9740;BME280;4909;42.680;26.324;2023-02-12T13:14:19;99776.47;;;9.11;40.88
9740;BME280;4909;42.680;26.324;2023-02-12T13:16:55;99769.22;;;9.21;40.74
9740;BME280;4909;42.680;26.324;2023-02-12T13:19:33;99783.91;;;8.94;40.80
9740;BME280;4909;42.680;26.324;2023-02-12T13:22:05;99765.03;;;8.66;42.12
9740;BME280;4909;42.680;26.324;2023-02-12T13:24:43;99785.44;;;8.61;42.67
9740;BME280;4909;42.680;26.324;2023-02-12T13:27:14;99783.00;;;8.48;43.06
9740;BME280;4909;42.680;26.324;2023-02-12T13:29:44;99794.59;;;8.42;43.36
9740;BME280;4909;42.680;26.324;2023-02-12T13:32:15;99798.00;;;8.47;43.30
9740;BME280;4909;42.680;26.324;2023-02-12T13:34:48;99802.47;;;8.45;43.08
9740;BME280;4909;42.680;26.324;2023-02-12T13:37:18;99816.00;;;8.25;44.25
9740;BME280;4909;42.680;26.324;2023-02-12T13:39:48;99814.00;;;8.41;44.54
9740;BME280;4909;42.680;26.324;2023-02-12T13:42:24;99816.56;;;8.46;44.88
9740;BME280;4909;42.680;26.324;2023-02-12T13:45:00;99822.13;;;8.31;44.72
9740;BME280;4909;42.680;26.324;2023-02-12T13:47:39;99817.66;;;8.34;45.00
9740;BME280;4909;42.680;26.324;2023-02-12T13:50:26;99827.56;;;8.18;45.13